Time;durP1;ratioP1;P1;durP2;ratioP2;P2;SDS_P1;SDS_P2;PMS_P1;PMS_P2;Temp;Humidity;BMP_temperature;BMP_pressure;BME280_temperature;BME280_humidity;BME280_pressure;Samples;Min_cycle;Max_cycle;Signal;HPM_P1;HPM_P2
2023/08/20 00:02:16;;;;;;;16.50;13.90;;;;;;;23.14;77.82;100147.84;106006;1252;60425;-73
2023/08/20 00:04:43;;;;;;;17.10;13.80;;;;;;;23.18;77.86;100148.57;106011;1257;60988;-74
2023/08/20 00:07:11;;;;;;;16.40;14.70;;;;;;;23.16;77.85;100150.11;106877;1251;73754;-73
2023/08/20 00:09:38;;;;;;;17.70;14.30;;;;;;;23.14;77.94;100152.11;106499;1256;68691;-75
2023/08/20 00:12:06;;;;;;;20.90;15.40;;;;;;;23.11;78.18;100152.55;105591;1254;71413;-75
2023/08/20 00:15:06;;;;;;;20.30;15.10;;;;;;;23.08;78.21;100153.04;105601;1254;61680;-74
2023/08/20 00:17:38;;;;;;;18.50;15.10;;;;;;;23.11;78.56;100149.55;105335;1254;60362;-73
2023/08/20 00:20:12;;;;;;;19.60;14.80;;;;;;;23.10;78.43;100151.27;105825;1257;73806;-74
2023/08/20 00:22:42;;;;;;;19.40;15.20;;;;;;;23.05;78.68;100151.23;105843;1254;70280;-74
2023/08/20 00:25:10;;;;;;;18.90;16.60;;;;;;;23.00;79.10;100147.75;105697;1256;71412;-75
2023/08/20 00:27:39;;;;;;;17.70;15.80;;;;;;;22.96;78.97;100148.11;105611;1254;60642;-74
2023/08/20 00:30:08;;;;;;;17.80;15.30;;;;;;;22.93;79.22;100144.42;105851;1251;60399;-75
2023/08/20 00:32:36;;;;;;;18.00;14.50;;;;;;;22.95;79.15;100145.34;105867;1251;73881;-75
2023/08/20 00:35:04;;;;;;;17.90;14.70;;;;;;;22.99;78.91;100144.54;105638;1256;68984;-75
2023/08/20 00:37:31;;;;;;;17.80;15.70;;;;;;;22.97;78.95;100138.26;105557;1251;72636;-75
2023/08/20 00:39:59;;;;;;;17.60;15.60;;;;;;;22.94;78.88;100143.95;105527;1254;60658;-75
2023/08/20 00:42:27;;;;;;;17.70;15.90;;;;;;;22.90;78.95;100143.97;105501;1259;60477;-74
2023/08/20 00:44:54;;;;;;;19.80;15.20;;;;;;;22.87;78.97;100142.30;105510;1251;72891;-72
2023/08/20 00:47:22;;;;;;;20.80;15.00;;;;;;;22.91;78.77;100141.99;105582;1256;70538;-75
2023/08/20 00:49:49;;;;;;;21.70;16.40;;;;;;;22.94;78.80;100142.59;105598;1256;72700;-72
2023/08/20 00:52:20;;;;;;;21.80;17.50;;;;;;;22.92;79.57;100143.35;105707;1251;60552;-73
2023/08/20 00:54:47;;;;;;;19.40;17.20;;;;;;;22.88;79.59;100143.11;105722;1256;60341;-72
2023/08/20 00:57:15;;;;;;;18.10;16.30;;;;;;;22.84;79.44;100141.41;105669;1256;72872;-72
2023/08/20 00:59:42;;;;;;;21.90;16.60;;;;;;;22.79;79.53;100136.15;105533;1251;69960;-75
2023/08/20 01:02:10;;;;;;;20.70;15.10;;;;;;;22.83;79.78;100139.96;105485;1251;72667;-73
2023/08/20 01:04:37;;;;;;;20.50;16.20;;;;;;;22.84;79.63;100136.86;105979;1257;60543;-72
2023/08/20 01:07:23;;;;;;;18.40;16.60;;;;;;;22.81;79.71;100135.92;105662;1251;60583;-72
2023/08/20 01:10:00;;;;;;;19.50;17.50;;;;;;;22.75;80.08;100130.40;105713;1251;75865;-73
2023/08/20 01:12:27;;;;;;;19.40;17.40;;;;;;;22.69;80.02;100126.70;105692;1256;70802;-72
2023/08/20 01:14:55;;;;;;;20.00;16.60;;;;;;;22.64;80.18;100130.80;105433;1251;72444;-73
2023/08/20 01:17:22;;;;;;;19.50;17.40;;;;;;;22.66;80.38;100129.13;105708;1257;61717;-73
2023/08/20 01:19:50;;;;;;;21.50;18.20;;;;;;;22.66;80.26;100126.25;105695;1257;60349;-75
2023/08/20 01:22:20;;;;;;;25.00;18.20;;;;;;;22.65;80.38;100126.65;105789;1251;72504;-75
2023/08/20 01:25:17;;;;;;;24.40;19.30;;;;;;;22.61;80.58;100127.44;105700;1256;69900;-73
2023/08/20 01:28:15;;;;;;;20.60;18.20;;;;;;;22.56;80.81;100131.45;105633;1254;71402;-75
2023/08/20 01:30:43;;;;;;;21.30;18.90;;;;;;;22.52;80.82;100130.06;106129;1254;61058;-76
2023/08/20 01:33:12;;;;;;;22.50;18.00;;;;;;;22.55;80.93;100129.95;106419;1256;59607;-75
2023/08/20 01:35:39;;;;;;;24.40;18.80;;;;;;;22.57;80.79;100127.46;106452;1251;73946;-72
2023/08/20 01:38:14;;;;;;;21.00;18.70;;;;;;;22.55;81.14;100126.17;107490;1250;69184;-75
2023/08/20 01:40:42;;;;;;;24.60;18.40;;;;;;;22.50;81.47;100122.73;108845;1251;71405;-73
2023/08/20 01:43:10;;;;;;;20.20;18.00;;;;;;;22.47;81.78;100122.81;108764;1253;60398;-73
2023/08/20 01:45:38;;;;;;;25.10;18.30;;;;;;;22.51;81.99;100119.70;106879;1256;60508;-74
2023/08/20 01:48:06;;;;;;;20.30;18.10;;;;;;;22.55;81.89;100119.13;105699;1256;72886;-72
2023/08/20 01:50:34;;;;;;;21.30;19.10;;;;;;;22.52;82.19;100119.73;105803;1254;69008;-74
2023/08/20 01:53:03;;;;;;;22.40;18.90;;;;;;;22.48;82.42;100123.05;105534;1254;72831;-75
2023/08/20 01:55:30;;;;;;;20.60;18.50;;;;;;;22.46;82.11;100122.36;105621;1251;60577;-74
2023/08/20 01:57:59;;;;;;;23.70;18.40;;;;;;;22.44;82.62;100119.93;105895;1251;60309;-73
2023/08/20 02:00:28;;;;;;;21.40;18.10;;;;;;;22.46;82.57;100120.29;105538;1257;73823;-74
2023/08/20 02:02:57;;;;;;;21.80;18.80;;;;;;;22.48;82.82;100118.89;106645;1251;69193;-73
2023/08/20 02:05:25;;;;;;;21.80;18.60;;;;;;;22.45;82.80;100121.36;105935;1255;71196;-77
2023/08/20 02:07:53;;;;;;;21.90;19.50;;;;;;;22.40;82.90;100125.37;105918;1251;60421;-72
2023/08/20 02:10:21;;;;;;;20.30;16.90;;;;;;;22.37;83.05;100125.19;105944;1252;60492;-73
2023/08/20 02:12:48;;;;;;;21.10;17.80;;;;;;;22.40;82.79;100126.23;105948;1254;74167;-75
2023/08/20 02:15:16;;;;;;;23.60;18.70;;;;;;;22.42;82.71;100130.54;105996;1256;69239;-75
2023/08/20 02:17:44;;;;;;;21.50;18.10;;;;;;;22.36;82.70;100131.61;105942;1251;71721;-75
2023/08/20 02:20:11;;;;;;;21.50;19.20;;;;;;;22.29;82.80;100128.16;105913;1257;60406;-73
2023/08/20 02:22:39;;;;;;;21.40;18.30;;;;;;;22.26;83.22;100129.33;105916;1253;60492;-75
2023/08/20 02:25:06;;;;;;;19.10;16.50;;;;;;;22.29;83.15;100128.62;105605;1252;71632;-73
2023/08/20 02:27:34;;;;;;;22.60;17.90;;;;;;;22.31;83.08;100132.40;105868;1251;68881;-74
2023/08/20 02:30:02;;;;;;;20.70;18.40;;;;;;;22.31;83.26;100130.95;105904;1251;72659;-73
2023/08/20 02:32:31;;;;;;;26.50;19.60;;;;;;;22.31;83.43;100127.34;106032;1251;60514;-76
2023/08/20 02:34:59;;;;;;;23.30;18.80;;;;;;;22.30;83.08;100128.23;106238;1251;60589;-76
2023/08/20 02:37:26;;;;;;;22.90;17.80;;;;;;;22.32;82.95;100125.44;106156;1251;75278;-77
2023/08/20 02:39:54;;;;;;;22.90;18.30;;;;;;;22.34;82.88;100121.65;105917;1251;70298;-77
2023/08/20 02:42:21;;;;;;;22.20;18.40;;;;;;;22.32;83.17;100126.48;105888;1251;72522;-76
2023/08/20 02:44:49;;;;;;;23.40;18.50;;;;;;;22.30;83.26;100126.39;105841;1251;60510;-77
2023/08/20 02:47:18;;;;;;;21.40;17.80;;;;;;;22.30;83.20;100128.81;106167;1255;60409;-76
2023/08/20 02:49:45;;;;;;;21.20;18.00;;;;;;;22.33;83.02;100127.33;105913;1256;71762;-78
2023/08/20 02:52:12;;;;;;;19.20;16.90;;;;;;;22.36;82.93;100129.81;105892;1257;68939;-77
2023/08/20 02:54:40;;;;;;;21.90;17.40;;;;;;;22.31;82.91;100127.71;106006;1256;73713;-76
2023/08/20 02:57:07;;;;;;;19.10;16.60;;;;;;;22.27;83.25;100129.06;105901;1251;60529;-76
2023/08/20 02:59:35;;;;;;;21.90;16.60;;;;;;;22.26;83.41;100128.63;105839;1251;60469;-78
2023/08/20 03:02:03;;;;;;;23.80;15.60;;;;;;;22.31;83.05;100127.76;105853;1257;73892;-75
2023/08/20 03:04:31;;;;;;;19.40;16.40;;;;;;;22.34;83.03;100129.83;106133;1251;69911;-75
2023/08/20 03:06:59;;;;;;;21.80;16.60;;;;;;;22.31;83.05;100127.54;105934;1253;72472;-76
2023/08/20 03:09:26;;;;;;;19.20;17.10;;;;;;;22.29;83.11;100128.33;105908;1254;60501;-77
2023/08/20 03:11:54;;;;;;;20.60;16.10;;;;;;;22.28;83.08;100125.14;106050;1251;60424;-77
2023/08/20 03:14:21;;;;;;;18.40;15.00;;;;;;;22.32;82.98;100125.93;105569;1256;73904;-75
2023/08/20 03:16:50;;;;;;;18.80;16.80;;;;;;;22.35;82.92;100126.92;106032;1257;68843;-74
2023/08/20 03:19:17;;;;;;;20.20;16.70;;;;;;;22.33;82.90;100129.37;105858;1251;71388;-77
2023/08/20 03:21:45;;;;;;;17.50;15.80;;;;;;;22.29;83.06;100128.65;106044;1254;60850;-76
2023/08/20 03:24:12;;;;;;;19.40;16.00;;;;;;;22.30;83.34;100128.72;105985;1251;60498;-77
2023/08/20 03:26:40;;;;;;;17.40;14.60;;;;;;;22.39;83.19;100130.52;105989;1251;74068;-75
2023/08/20 03:29:07;;;;;;;17.90;16.00;;;;;;;22.47;82.99;100127.90;105972;1251;70102;-77
2023/08/20 03:31:35;;;;;;;20.80;15.90;;;;;;;22.50;83.07;100125.94;105642;1258;70842;-76
2023/08/20 03:34:03;;;;;;;20.80;16.40;;;;;;;22.49;83.06;100126.16;105800;1257;60469;-74
2023/08/20 03:36:32;;;;;;;17.80;15.40;;;;;;;22.51;83.01;100123.59;105936;1256;60867;-76
2023/08/20 03:38:59;;;;;;;19.20;15.00;;;;;;;22.59;82.95;100124.52;105905;1251;72620;-74
2023/08/20 03:41:27;;;;;;;18.20;14.80;;;;;;;22.64;82.81;100124.99;105858;1257;69211;-76
2023/08/20 03:43:54;;;;;;;18.20;15.70;;;;;;;22.61;82.61;100126.84;105877;1256;72331;-76
2023/08/20 03:46:21;;;;;;;17.60;15.80;;;;;;;22.58;82.74;100121.90;105880;1256;60492;-76
2023/08/20 03:48:49;;;;;;;17.50;15.60;;;;;;;22.57;82.68;100122.89;105901;1251;60580;-76
2023/08/20 03:51:16;;;;;;;17.20;15.10;;;;;;;22.65;82.64;100120.91;106067;1251;73041;-73
2023/08/20 03:53:44;;;;;;;18.80;15.90;;;;;;;22.73;82.52;100114.70;106201;1256;70155;-76
2023/08/20 03:56:11;;;;;;;21.50;14.90;;;;;;;22.77;82.73;100115.70;106256;1254;71396;-77
2023/08/20 03:58:38;;;;;;;16.40;14.70;;;;;;;22.81;82.62;100110.08;105997;1254;60542;-75
2023/08/20 04:01:06;;;;;;;19.80;15.80;;;;;;;22.89;82.80;100106.36;106043;1256;60458;-74
2023/08/20 04:03:33;;;;;;;20.20;15.40;;;;;;;23.03;82.59;100103.34;106182;1251;73154;-76
2023/08/20 04:06:02;;;;;;;18.90;15.00;;;;;;;23.16;82.44;100104.84;106244;1257;69028;-76
2023/08/20 04:08:29;;;;;;;18.70;15.80;;;;;;;23.21;82.23;100103.42;105852;1251;72539;-76
2023/08/20 04:10:56;;;;;;;18.80;16.20;;;;;;;23.24;82.35;100102.83;106242;1251;60438;-74
2023/08/20 04:13:24;;;;;;;19.30;15.50;;;;;;;23.28;82.63;100103.55;106073;1251;221402;-74
2023/08/20 04:16:52;;;;;;;17.90;14.70;;;;;;;23.38;82.29;100102.96;102728;1294;601278;-73
2023/08/20 04:19:19;;;;;;;22.60;15.70;;;;;;;23.45;81.79;100099.38;104877;1271;61722;-75
2023/08/20 04:21:47;;;;;;;21.80;16.30;;;;;;;23.52;82.16;100098.16;104772;1272;60014;-73
2023/08/20 04:24:14;;;;;;;19.60;16.40;;;;;;;23.60;82.98;100096.23;104765;1269;72461;-74
2023/08/20 04:26:42;;;;;;;21.20;16.00;;;;;;;23.67;83.26;100100.52;104777;1272;70119;-73
2023/08/20 04:29:09;;;;;;;16.90;14.40;;;;;;;23.75;82.75;100098.27;104590;1269;72798;-76
2023/08/20 04:31:37;;;;;;;17.40;15.40;;;;;;;23.88;81.93;100094.73;104874;1269;166242;-74
2023/08/20 04:34:08;;;;;;;17.50;15.50;;;;;;;24.01;82.18;100096.11;105017;1270;60396;-75
2023/08/20 04:36:48;;;;;;;17.40;14.80;;;;;;;24.10;82.49;100093.36;105413;1259;72278;-76
2023/08/20 04:39:15;;;;;;;17.30;15.50;;;;;;;24.16;81.91;100100.02;105200;1261;70345;-76
2023/08/20 04:41:45;;;;;;;18.00;15.50;;;;;;;24.22;81.60;100099.40;105218;1266;73172;-75
2023/08/20 04:44:15;;;;;;;20.50;15.50;;;;;;;24.26;81.30;100098.58;105479;1261;61725;-75
2023/08/20 04:46:43;;;;;;;18.60;15.40;;;;;;;24.38;81.61;100096.14;105158;1266;59595;-74
2023/08/20 04:49:11;;;;;;;17.80;15.90;;;;;;;24.54;81.61;100098.86;105336;1264;71789;-76
2023/08/20 04:51:38;;;;;;;21.60;16.60;;;;;;;24.66;82.43;100096.09;105206;1265;68771;-74
2023/08/20 04:54:06;;;;;;;18.30;15.80;;;;;;;24.76;82.16;100096.23;105440;1262;74751;-74
2023/08/20 04:56:34;;;;;;;20.20;16.50;;;;;;;24.85;81.26;100096.44;105360;1264;59722;-73
2023/08/20 04:59:01;;;;;;;20.60;15.30;;;;;;;24.92;80.90;100091.04;105461;1263;59677;-73
2023/08/20 05:01:47;;;;;;;20.90;15.50;;;;;;;25.08;80.59;100095.45;105671;1261;73127;-76
2023/08/20 05:04:16;;;;;;;18.60;14.80;;;;;;;25.21;80.39;100097.71;105530;1262;70108;-74
2023/08/20 05:06:44;;;;;;;16.90;15.10;;;;;;;25.29;79.69;100101.13;105660;1263;71603;-75
2023/08/20 05:09:12;;;;;;;21.00;16.70;;;;;;;25.36;79.99;100098.26;105779;1257;59699;-74
2023/08/20 05:11:39;;;;;;;17.40;15.60;;;;;;;25.43;80.17;100093.15;105841;1253;60048;-75
2023/08/20 05:14:10;;;;;;;20.50;15.90;;;;;;;25.52;80.13;100095.09;105778;1254;72834;-76
2023/08/20 05:16:37;;;;;;;15.70;14.00;;;;;;;25.65;79.32;100090.45;105784;1260;70459;-74
2023/08/20 05:19:05;;;;;;;17.90;14.80;;;;;;;25.80;78.93;100092.80;105825;1255;72661;-77
2023/08/20 05:21:33;;;;;;;17.40;14.30;;;;;;;25.89;77.87;100091.02;105693;1258;60108;-73
2023/08/20 05:24:00;;;;;;;20.50;14.50;;;;;;;25.98;76.88;100091.08;105742;1260;59565;-73
2023/08/20 05:26:27;;;;;;;15.30;13.80;;;;;;;26.08;76.66;100095.16;105953;1257;73093;-76
2023/08/20 05:28:55;;;;;;;16.70;14.70;;;;;;;26.17;76.34;100094.17;105688;1259;68982;-75
2023/08/20 05:31:22;;;;;;;18.40;14.30;;;;;;;26.24;76.22;100090.95;105908;1257;72720;-75
2023/08/20 05:33:50;;;;;;;15.40;12.50;;;;;;;26.37;75.43;100089.88;105695;1263;60081;-76
2023/08/20 05:36:17;;;;;;;11.20;10.00;;;;;;;26.50;74.19;100086.80;105505;1260;60176;-74
2023/08/20 05:38:46;;;;;;;16.00;11.30;;;;;;;26.57;71.39;100081.33;106422;1254;72193;-74
2023/08/20 05:41:14;;;;;;;13.50;10.90;;;;;;;26.65;70.87;100081.27;106677;1260;68807;-76
2023/08/20 05:43:41;;;;;;;14.00;10.90;;;;;;;26.75;69.21;100078.36;107734;1260;71406;-77
2023/08/20 05:46:09;;;;;;;15.70;11.20;;;;;;;26.85;68.17;100078.35;107949;1254;58895;-76
2023/08/20 05:48:37;;;;;;;11.70;9.60;;;;;;;26.96;67.29;100076.41;108197;1254;59663;-77
2023/08/20 05:51:05;;;;;;;11.70;9.40;;;;;;;27.07;66.47;100071.30;108067;1254;72719;-75
2023/08/20 05:53:32;;;;;;;11.90;9.80;;;;;;;27.16;66.13;100074.05;108112;1258;69078;-77
2023/08/20 05:56:00;;;;;;;11.40;8.70;;;;;;;27.25;65.17;100070.65;107315;1254;73482;-78
2023/08/20 05:58:27;;;;;;;10.60;8.00;;;;;;;27.34;64.48;100071.48;106767;1261;59542;-76
2023/08/20 06:00:55;;;;;;;12.60;8.60;;;;;;;27.41;63.77;100071.55;106408;1254;59754;-75
2023/08/20 06:03:22;;;;;;;10.40;8.20;;;;;;;27.48;63.26;100069.10;105925;1260;73055;-78
2023/08/20 06:05:52;;;;;;;11.10;9.10;;;;;;;27.54;63.88;100070.95;105818;1256;70810;-76
2023/08/20 06:08:19;;;;;;;10.20;9.20;;;;;;;27.61;63.96;100072.21;105671;1261;72576;-77
2023/08/20 06:10:47;;;;;;;12.50;8.90;;;;;;;27.65;64.19;100070.77;105783;1254;60058;-78
2023/08/20 06:13:14;;;;;;;11.70;9.30;;;;;;;27.70;64.44;100075.70;105533;1259;59946;-78
2023/08/20 06:15:41;;;;;;;13.20;9.30;;;;;;;27.74;63.93;100074.92;105661;1257;73004;-76
2023/08/20 06:18:09;;;;;;;16.40;9.90;;;;;;;27.80;63.78;100073.55;105567;1257;70586;-77
2023/08/20 06:20:36;;;;;;;11.20;10.20;;;;;;;27.84;63.67;100070.61;105383;1260;71478;-78
2023/08/20 06:23:04;;;;;;;14.30;9.90;;;;;;;27.89;64.14;100072.14;105810;1257;60026;-76
2023/08/20 06:25:31;;;;;;;12.70;9.80;;;;;;;27.92;64.02;100071.98;105858;1257;60075;-75
2023/08/20 06:28:01;;;;;;;11.70;9.50;;;;;;;27.96;63.55;100070.35;105679;1258;72987;-75
2023/08/20 06:30:28;;;;;;;12.50;8.90;;;;;;;28.01;63.41;100072.03;105894;1258;68982;-74
2023/08/20 06:32:56;;;;;;;11.70;9.90;;;;;;;28.05;63.17;100071.37;106080;1259;73188;-77
2023/08/20 06:35:23;;;;;;;10.20;8.90;;;;;;;28.11;63.01;100071.74;105765;1254;60595;-75
2023/08/20 06:37:51;;;;;;;19.50;10.40;;;;;;;28.18;62.99;100071.89;105416;1259;59978;-74
2023/08/20 06:40:18;;;;;;;11.00;8.90;;;;;;;28.24;62.06;100065.86;105443;1259;72996;-76
2023/08/20 06:42:46;;;;;;;8.60;7.80;;;;;;;28.31;61.30;100069.83;105704;1254;70037;-75
2023/08/20 06:45:13;;;;;;;10.10;7.70;;;;;;;28.37;59.71;100065.20;105892;1259;72322;-75
2023/08/20 06:47:40;;;;;;;9.80;7.30;;;;;;;28.43;59.26;100064.70;105607;1258;59747;-74
2023/08/20 06:50:08;;;;;;;10.60;7.40;;;;;;;28.51;58.82;100064.64;105645;1254;60119;-76
2023/08/20 06:52:36;;;;;;;13.10;8.20;;;;;;;28.57;58.64;100063.91;105624;1254;71838;-77
2023/08/20 06:55:04;;;;;;;9.90;8.00;;;;;;;28.62;58.74;100064.16;105652;1259;70307;-76
2023/08/20 06:57:31;;;;;;;11.40;9.10;;;;;;;28.69;58.87;100067.24;105458;1255;73153;-75
2023/08/20 06:59:59;;;;;;;11.60;9.20;;;;;;;28.75;58.07;100070.94;105579;1257;59928;-75
2023/08/20 07:02:27;;;;;;;16.60;10.00;;;;;;;28.79;57.74;100071.89;105364;1254;60163;-76
2023/08/20 07:04:54;;;;;;;10.00;8.10;;;;;;;28.74;60.32;100072.58;105704;1254;73090;-76
2023/08/20 07:07:22;;;;;;;10.20;8.20;;;;;;;28.64;58.75;100069.29;105783;1254;70023;-74
2023/08/20 07:09:49;;;;;;;10.30;8.70;;;;;;;28.55;58.42;100072.98;105638;1254;70801;-74
2023/08/20 07:12:16;;;;;;;9.80;8.70;;;;;;;28.46;58.20;100076.23;105334;1254;60169;-76
2023/08/20 07:14:44;;;;;;;8.90;7.90;;;;;;;28.36;58.28;100072.05;105487;1254;60081;-75
2023/08/20 07:17:11;;;;;;;11.70;7.60;;;;;;;28.26;59.00;100071.65;105526;1260;73035;-76
2023/08/20 07:19:39;;;;;;;10.50;8.20;;;;;;;28.21;59.10;100069.15;105538;1254;69933;-75
2023/08/20 07:22:06;;;;;;;9.00;8.10;;;;;;;28.19;59.22;100069.91;105581;1260;71271;-75
2023/08/20 07:24:35;;;;;;;9.70;8.60;;;;;;;28.20;58.79;100074.39;105647;1256;59744;-75
2023/08/20 07:27:03;;;;;;;8.20;7.10;;;;;;;28.22;58.91;100073.83;105705;1254;60017;-75
2023/08/20 07:29:31;;;;;;;9.10;8.30;;;;;;;28.24;57.92;100072.15;105455;1260;73056;-76
2023/08/20 07:32:02;;;;;;;9.40;7.60;;;;;;;28.27;58.38;100068.26;105674;1254;70314;-76
2023/08/20 07:34:34;;;;;;;7.70;6.90;;;;;;;28.29;58.04;100065.67;105651;1257;72592;-76
2023/08/20 07:37:02;;;;;;;10.30;7.40;;;;;;;28.32;57.81;100066.65;105566;1254;60126;-76
2023/08/20 07:39:30;;;;;;;8.20;7.20;;;;;;;28.32;58.14;100065.29;105869;1254;60067;-77
2023/08/20 07:41:57;;;;;;;9.70;7.50;;;;;;;28.36;58.19;100064.45;106184;1254;71110;-77
2023/08/20 07:44:25;;;;;;;8.50;7.00;;;;;;;28.42;57.88;100062.13;106551;1258;68707;-77
2023/08/20 07:46:52;;;;;;;8.60;6.80;;;;;;;28.51;57.14;100065.17;105848;1254;72735;-75
2023/08/20 07:49:20;;;;;;;7.90;6.40;;;;;;;28.58;56.94;100066.64;105575;1260;59726;-73
2023/08/20 07:51:48;;;;;;;9.80;7.50;;;;;;;28.67;56.66;100063.11;105744;1254;60217;-72
2023/08/20 07:54:15;;;;;;;8.30;7.40;;;;;;;28.75;57.07;100062.19;105750;1254;71888;-76
2023/08/20 07:56:43;;;;;;;11.80;7.20;;;;;;;28.83;56.98;100063.66;105731;1254;70435;-78
2023/08/20 07:59:10;;;;;;;9.60;6.90;;;;;;;28.91;56.47;100059.86;105835;1254;71075;-79
2023/08/20 08:01:38;;;;;;;7.60;6.80;;;;;;;29.00;56.52;100060.25;105829;1254;60082;-80
2023/08/20 08:04:05;;;;;;;8.00;7.20;;;;;;;29.09;55.37;100056.58;106680;1254;60125;-80
2023/08/20 08:06:33;;;;;;;10.10;6.70;;;;;;;29.17;53.98;100054.20;105880;1254;71655;-79
2023/08/20 08:09:35;;;;;;;8.70;7.20;;;;;;;29.24;54.02;100054.42;105908;1254;69982;-79
2023/08/20 08:12:02;;;;;;;8.60;6.80;;;;;;;29.32;53.90;100050.59;105823;1261;72748;-80
2023/08/20 08:14:30;;;;;;;7.00;6.20;;;;;;;29.34;53.83;100050.56;105878;1257;60205;-78
2023/08/20 08:16:57;;;;;;;7.00;6.20;;;;;;;29.29;52.22;100047.27;105843;1254;59778;-80
2023/08/20 08:19:25;;;;;;;6.70;5.60;;;;;;;29.19;51.18;100051.77;105645;1255;73262;-78
2023/08/20 08:21:52;;;;;;;6.40;5.50;;;;;;;29.13;51.18;100051.31;105748;1254;72671;-80
2023/08/20 08:24:19;;;;;;;10.90;6.80;;;;;;;29.08;50.94;100051.38;105693;1254;72438;-80
2023/08/20 08:26:47;;;;;;;6.60;6.10;;;;;;;29.03;53.38;100052.94;105662;1256;60580;-80
2023/08/20 08:29:14;;;;;;;11.30;6.50;;;;;;;28.97;51.86;100048.98;105787;1254;60509;-80
2023/08/20 08:31:41;;;;;;;7.70;6.90;;;;;;;28.96;52.10;100047.40;105771;1254;73841;-80
2023/08/20 08:34:09;;;;;;;7.40;6.30;;;;;;;28.97;52.04;100044.17;105672;1254;70099;-80
2023/08/20 08:36:36;;;;;;;8.20;6.60;;;;;;;28.97;51.79;100040.45;105793;1259;72496;-82
2023/08/20 08:39:05;;;;;;;8.50;7.00;;;;;;;28.96;51.65;100041.83;106139;1254;60562;-82
2023/08/20 08:41:32;;;;;;;7.40;6.60;;;;;;;28.93;51.23;100044.36;106263;1254;61143;-82
2023/08/20 08:43:59;;;;;;;8.60;5.90;;;;;;;28.90;51.48;100037.50;106196;1254;72639;-79
2023/08/20 08:46:27;;;;;;;9.50;6.00;;;;;;;28.87;51.40;100039.20;106169;1254;69045;-79
2023/08/20 08:48:54;;;;;;;7.60;6.10;;;;;;;28.91;51.13;100036.45;107401;1254;72798;-79
2023/08/20 08:51:22;;;;;;;8.00;6.20;;;;;;;29.01;51.04;100034.90;105722;1254;60598;-81
2023/08/20 08:53:49;;;;;;;10.00;6.10;;;;;;;29.17;50.79;100030.16;105791;1254;60426;-80
2023/08/20 08:56:16;;;;;;;7.10;6.20;;;;;;;29.28;50.23;100030.36;105904;1254;74068;-82
2023/08/20 08:58:44;;;;;;;6.90;5.90;;;;;;;29.37;49.26;100033.80;106012;1255;70362;-80
2023/08/20 09:01:11;;;;;;;9.00;6.00;;;;;;;29.43;49.59;100032.70;106171;1258;70799;-80
2023/08/20 09:03:39;;;;;;;6.30;5.70;;;;;;;29.53;50.62;100031.19;106616;1256;60051;-78
2023/08/20 09:06:09;;;;;;;7.40;6.50;;;;;;;29.70;50.33;100026.77;107630;1258;60084;-80
2023/08/20 09:08:37;;;;;;;8.70;7.00;;;;;;;29.93;50.00;100032.59;108264;1253;72579;-80
2023/08/20 09:11:05;;;;;;;6.70;5.80;;;;;;;30.19;49.62;100029.57;108011;1257;68692;-78
2023/08/20 09:13:32;;;;;;;9.00;6.00;;;;;;;30.47;48.13;100033.20;106152;1260;71864;-79
2023/08/20 09:15:59;;;;;;;6.90;6.00;;;;;;;30.90;47.85;100031.86;105962;1259;60416;-79
2023/08/20 09:18:27;;;;;;;7.70;5.90;;;;;;;31.38;47.91;100032.45;105888;1253;60580;-76
2023/08/20 09:20:54;;;;;;;10.60;6.60;;;;;;;31.74;45.76;100025.58;105973;1253;73859;-79
2023/08/20 09:23:22;;;;;;;7.30;6.60;;;;;;;31.91;45.52;100022.08;106083;1258;68720;-80
2023/08/20 09:25:49;;;;;;;8.90;6.10;;;;;;;31.99;45.46;100020.17;105834;1258;71377;-79
2023/08/20 09:28:16;;;;;;;9.90;6.60;;;;;;;31.99;44.26;100022.81;105691;1255;60578;-80
2023/08/20 09:30:55;;;;;;;7.00;6.30;;;;;;;31.87;43.98;100023.91;105732;1253;60448;-80
2023/08/20 09:33:22;;;;;;;8.40;6.50;;;;;;;31.70;44.91;100020.12;105879;1258;72577;-80
2023/08/20 09:35:50;;;;;;;7.80;6.60;;;;;;;31.49;44.80;100018.11;105752;1253;70262;-80
2023/08/20 09:38:22;;;;;;;8.90;6.00;;;;;;;31.38;44.67;100016.36;105914;1254;71391;-81
2023/08/20 09:40:56;;;;;;;6.80;6.00;;;;;;;31.49;46.08;100015.80;105719;1258;60655;-80
2023/08/20 09:43:27;;;;;;;7.30;6.10;;;;;;;31.77;45.39;100014.15;105968;1258;61151;-80
2023/08/20 09:45:56;;;;;;;8.10;6.30;;;;;;;32.01;44.54;100020.41;105878;1253;72676;-80
2023/08/20 09:48:24;;;;;;;7.50;6.60;;;;;;;32.12;46.02;100016.55;105766;1253;70165;-81
2023/08/20 09:50:52;;;;;;;6.30;5.70;;;;;;;32.10;43.71;100011.67;105680;1254;72667;-81
2023/08/20 09:53:44;;;;;;;9.80;6.00;;;;;;;32.15;43.83;100007.90;105782;1255;60471;-81
2023/08/20 09:56:19;;;;;;;9.80;5.70;;;;;;;32.47;45.11;100008.12;105832;1254;60547;-77
2023/08/20 09:58:47;;;;;;;6.80;6.10;;;;;;;32.96;43.74;100004.61;105588;1258;74201;-81
2023/08/20 10:01:14;;;;;;;10.70;7.30;;;;;;;33.58;44.11;100000.00;105797;1259;69468;-82
2023/08/20 10:03:42;;;;;;;6.60;5.80;;;;;;;34.27;44.24;99988.10;106051;1254;72654;-81
2023/08/20 10:06:11;;;;;;;6.40;5.80;;;;;;;34.90;43.13;99982.92;106404;1254;60561;-80
2023/08/20 10:08:38;;;;;;;6.50;5.70;;;;;;;35.53;41.05;99983.95;106837;1254;60412;-77
2023/08/20 10:11:05;;;;;;;6.50;5.90;;;;;;;36.01;37.90;99987.73;109165;1253;64922;-79
2023/08/20 10:13:33;;;;;;;7.90;5.30;;;;;;;36.30;36.84;99985.21;108976;1253;60094;-78
2023/08/20 10:16:00;;;;;;;6.60;5.50;;;;;;;36.51;37.55;99985.08;107456;1254;62519;-77
2023/08/20 10:18:28;;;;;;;5.50;5.00;;;;;;;36.83;38.70;99981.39;105740;1254;60551;-79
2023/08/20 10:21:00;;;;;;;8.00;6.10;;;;;;;37.25;37.69;99985.45;105864;1259;60496;-79
2023/08/20 10:23:30;;;;;;;6.20;5.30;;;;;;;37.54;36.92;99984.23;106153;1253;63798;-80
2023/08/20 10:26:07;;;;;;;7.70;6.00;;;;;;;37.69;38.75;99984.03;106098;1253;61842;-77
2023/08/20 10:28:35;;;;;;;6.70;6.00;;;;;;;37.89;38.84;99977.84;107306;1254;62497;-78
2023/08/20 10:31:09;;;;;;;6.70;6.00;;;;;;;38.10;38.04;99972.09;107765;1257;59307;-78
2023/08/20 10:33:38;;;;;;;6.80;6.10;;;;;;;38.22;37.47;99967.92;107827;1254;59625;-80
2023/08/20 10:36:30;;;;;;;6.60;6.00;;;;;;;38.17;36.84;99968.67;106290;1260;63630;-78
2023/08/20 10:38:58;;;;;;;8.00;6.10;;;;;;;38.03;36.25;99969.86;105889;1254;61338;-79
2023/08/20 10:41:27;;;;;;;8.00;5.60;;;;;;;37.89;36.92;99966.88;106140;1254;63744;-82
2023/08/20 10:43:58;;;;;;;7.00;6.30;;;;;;;37.89;37.62;99964.92;106149;1255;60299;-80
2023/08/20 10:46:29;;;;;;;6.80;5.90;;;;;;;38.09;37.77;99959.61;106240;1253;60465;-78
2023/08/20 10:48:57;;;;;;;6.60;5.70;;;;;;;38.37;36.62;99960.08;105945;1253;63969;-78
2023/08/20 10:51:25;;;;;;;6.80;6.20;;;;;;;38.52;36.13;99962.11;105871;1253;60111;-78
2023/08/20 10:54:02;;;;;;;6.40;5.70;;;;;;;38.56;36.64;99957.73;105392;1254;64067;-78
2023/08/20 10:56:46;;;;;;;6.80;6.10;;;;;;;38.73;36.16;99958.13;105833;1255;60576;-78
2023/08/20 10:59:17;;;;;;;6.60;5.60;;;;;;;38.64;35.53;99955.89;105697;1259;60406;-79
2023/08/20 11:01:49;;;;;;;6.50;5.60;;;;;;;38.38;35.85;99954.09;105837;1259;65021;-79
2023/08/20 11:04:17;;;;;;;;;;;;;;;38.32;36.28;99951.21;105864;1253;61588;-82
2023/08/20 11:06:44;;;;;;;7.20;6.00;;;;;;;38.33;35.66;99948.55;106127;1254;64467;-81
2023/08/20 11:09:13;;;;;;;6.70;6.10;;;;;;;38.36;35.52;99946.41;105884;1253;60432;-82
2023/08/20 11:11:41;;;;;;;7.10;5.80;;;;;;;38.23;35.48;99941.92;105562;1260;60451;-80
2023/08/20 11:14:16;;;;;;;6.00;5.60;;;;;;;37.95;35.89;99938.08;105753;1253;63877;-82
2023/08/20 11:16:44;;;;;;;7.20;6.70;;;;;;;37.63;36.15;99938.30;105787;1258;60537;-82
2023/08/20 11:19:12;;;;;;;7.30;6.00;;;;;;;37.25;36.29;99937.02;105683;1253;63755;-80